Elena, Argentina
Current Conditions -  °F | °C
As of 7:00 AM on Sunday 21 Dec 2014 (Local Time) from SAOC Reporting Station
Scattered Clouds Scattered Clouds  
Wind Chill: 55°   Ceiling: Unl
Heat Index: 55°   Visibility: 6mi
Dew Point: 45°   Wind: 10mph
Humidity: 67%   Direction: 180°S
Pressure: 29.91"   Gusts: NA
Location:  32.57°S, 64.39°W
Report Text: SAOC 211000Z 18009KT 9999 SCT040 SCT10013/07 Q1013
Loading
Personal Weather Stations






























Interactive Weather Map New forecast layout! Learn more

10-Day Weather Forecast

Advertisements
Track Severe Weather on mobile